Skip Navigation Links Skip Navigation Links

Current Weather

Phoenix Deer Valley, Phoenix, Ariz.

For information only: do not use for flight planning or navigation.
Latest weather
Observation time Monday, October 18, 2021 11:53 AM MST
Local time Monday, October 18, 2021 12:39 PM MST
Flight conditions Visual Meteorological Conditions
Winds
Wind direction West-Southwest (240°)
Wind speed 10 mph
Visibility 10 mi.
Sky condition
Ceiling 6,000 ft. broken clouds
Cloud layer broken clouds 6,000 ft.
Temperature 75°F
Dewpoint 50°F
Altimeter 29.88 in.Hg
Derived measurements
Relative humidity 41%
Density altitude 2733 ft.
Sea-level pressure 29.83 in.Hg
Remarks
Automated weather observing station with precipitation discriminator.
METAR KDVT 181853Z 24009KT 10SM BKN060 24/10 A2988 RMK AO2 SLP100 T02390100

Settings

Location code

InnerDrive.Weather 4.0.6770.0 Release CLR 4.0.30319.42000
Copyright ©2018 Inner Drive Technology. All rights reserved. Portions Copyright ©1986-2018 David Braverman.

Find weather

Site navigation


Skip Navigation Links

Place info

Page info

PayPal - The safer, easier way to pay online!

Return home.

Copyright ©2021 Inner Drive Technology. Purveyors of fine, hand-crafted computer software. Page printed 2021-10-18T19:39:38 UTC.